sensor_id;sensor_type;location;lat;lon;timestamp;P1;durP1;ratioP1;P2;durP2;ratioP2
70270;SDS011;57680;54.292;18.598;2023-05-10T00:00:20;16.77;;;4.33;;
70270;SDS011;57680;54.292;18.598;2023-05-10T00:02:46;9.77;;;4.40;;
70270;SDS011;57680;54.292;18.598;2023-05-10T00:05:12;10.90;;;5.18;;
70270;SDS011;57680;54.292;18.598;2023-05-10T00:07:37;11.77;;;4.73;;
70270;SDS011;57680;54.292;18.598;2023-05-10T00:10:03;9.05;;;4.50;;
70270;SDS011;57680;54.292;18.598;2023-05-10T00:12:28;9.27;;;4.27;;
70270;SDS011;57680;54.292;18.598;2023-05-10T00:14:54;10.87;;;4.27;;
70270;SDS011;57680;54.292;18.598;2023-05-10T00:17:19;12.00;;;4.55;;
70270;SDS011;57680;54.292;18.598;2023-05-10T00:19:45;12.13;;;4.70;;
70270;SDS011;57680;54.292;18.598;2023-05-10T00:22:10;10.33;;;4.10;;
70270;SDS011;57680;54.292;18.598;2023-05-10T00:24:36;12.97;;;5.00;;
70270;SDS011;57680;54.292;18.598;2023-05-10T00:27:03;10.60;;;4.53;;
70270;SDS011;57680;54.292;18.598;2023-05-10T00:29:28;10.52;;;4.50;;
70270;SDS011;57680;54.292;18.598;2023-05-10T00:31:54;10.97;;;4.50;;
70270;SDS011;57680;54.292;18.598;2023-05-10T00:34:22;10.30;;;4.90;;
70270;SDS011;57680;54.292;18.598;2023-05-10T00:36:48;11.25;;;4.90;;
70270;SDS011;57680;54.292;18.598;2023-05-10T00:39:13;9.63;;;4.80;;
70270;SDS011;57680;54.292;18.598;2023-05-10T00:41:39;10.03;;;4.67;;
70270;SDS011;57680;54.292;18.598;2023-05-10T00:44:04;10.47;;;4.63;;
70270;SDS011;57680;54.292;18.598;2023-05-10T00:46:31;10.40;;;5.00;;
70270;SDS011;57680;54.292;18.598;2023-05-10T00:48:57;11.77;;;4.70;;
70270;SDS011;57680;54.292;18.598;2023-05-10T00:51:24;9.88;;;4.43;;
70270;SDS011;57680;54.292;18.598;2023-05-10T00:53:50;11.80;;;5.07;;
70270;SDS011;57680;54.292;18.598;2023-05-10T00:56:17;12.05;;;4.80;;
70270;SDS011;57680;54.292;18.598;2023-05-10T00:58:42;13.48;;;5.20;;
70270;SDS011;57680;54.292;18.598;2023-05-10T01:01:08;10.60;;;4.87;;
70270;SDS011;57680;54.292;18.598;2023-05-10T01:03:34;12.20;;;5.47;;
70270;SDS011;57680;54.292;18.598;2023-05-10T01:06:01;14.38;;;6.10;;
70270;SDS011;57680;54.292;18.598;2023-05-10T01:08:26;12.38;;;5.60;;
70270;SDS011;57680;54.292;18.598;2023-05-10T01:10:53;12.82;;;5.68;;
70270;SDS011;57680;54.292;18.598;2023-05-10T01:13:24;11.90;;;5.27;;
70270;SDS011;57680;54.292;18.598;2023-05-10T01:15:56;13.98;;;5.43;;
70270;SDS011;57680;54.292;18.598;2023-05-10T01:18:22;10.95;;;5.20;;
70270;SDS011;57680;54.292;18.598;2023-05-10T01:20:55;12.65;;;5.18;;
70270;SDS011;57680;54.292;18.598;2023-05-10T01:26:39;11.40;;;4.97;;
70270;SDS011;57680;54.292;18.598;2023-05-10T01:29:18;11.65;;;5.15;;
70270;SDS011;57680;54.292;18.598;2023-05-10T01:35:06;12.85;;;5.05;;
70270;SDS011;57680;54.292;18.598;2023-05-10T01:46:21;8.95;;;4.70;;
70270;SDS011;57680;54.292;18.598;2023-05-10T01:48:54;11.77;;;5.18;;
70270;SDS011;57680;54.292;18.598;2023-05-10T01:51:27;11.27;;;4.80;;
70270;SDS011;57680;54.292;18.598;2023-05-10T01:54:01;9.57;;;4.70;;
70270;SDS011;57680;54.292;18.598;2023-05-10T01:56:28;10.93;;;5.30;;
70270;SDS011;57680;54.292;18.598;2023-05-10T01:58:55;11.30;;;5.10;;
70270;SDS011;57680;54.292;18.598;2023-05-10T02:01:23;13.02;;;4.82;;
70270;SDS011;57680;54.292;18.598;2023-05-10T02:03:50;9.77;;;4.85;;
70270;SDS011;57680;54.292;18.598;2023-05-10T02:06:18;10.30;;;4.63;;
70270;SDS011;57680;54.292;18.598;2023-05-10T02:08:45;10.40;;;4.30;;
70270;SDS011;57680;54.292;18.598;2023-05-10T02:11:12;10.02;;;4.55;;
70270;SDS011;57680;54.292;18.598;2023-05-10T02:13:38;10.88;;;4.55;;
70270;SDS011;57680;54.292;18.598;2023-05-10T02:16:05;11.65;;;4.63;;
70270;SDS011;57680;54.292;18.598;2023-05-10T02:18:32;10.47;;;4.70;;
70270;SDS011;57680;54.292;18.598;2023-05-10T02:21:00;11.60;;;4.90;;
70270;SDS011;57680;54.292;18.598;2023-05-10T02:23:27;12.90;;;5.75;;
70270;SDS011;57680;54.292;18.598;2023-05-10T02:25:53;13.15;;;5.90;;
70270;SDS011;57680;54.292;18.598;2023-05-10T02:28:21;15.95;;;6.10;;
70270;SDS011;57680;54.292;18.598;2023-05-10T02:30:51;16.67;;;7.50;;
70270;SDS011;57680;54.292;18.598;2023-05-10T02:33:24;20.80;;;8.13;;
70270;SDS011;57680;54.292;18.598;2023-05-10T02:35:50;27.63;;;10.73;;
70270;SDS011;57680;54.292;18.598;2023-05-10T02:38:21;39.17;;;14.63;;
70270;SDS011;57680;54.292;18.598;2023-05-10T02:40:47;40.15;;;16.20;;
70270;SDS011;57680;54.292;18.598;2023-05-10T02:43:14;32.00;;;12.80;;
70270;SDS011;57680;54.292;18.598;2023-05-10T02:45:42;32.03;;;12.73;;
70270;SDS011;57680;54.292;18.598;2023-05-10T02:48:08;24.83;;;11.23;;
70270;SDS011;57680;54.292;18.598;2023-05-10T02:50:34;24.50;;;10.63;;
70270;SDS011;57680;54.292;18.598;2023-05-10T02:53:04;22.10;;;9.67;;
70270;SDS011;57680;54.292;18.598;2023-05-10T02:55:37;22.58;;;9.07;;
70270;SDS011;57680;54.292;18.598;2023-05-10T02:58:06;17.58;;;8.40;;
70270;SDS011;57680;54.292;18.598;2023-05-10T03:00:31;17.43;;;8.30;;
70270;SDS011;57680;54.292;18.598;2023-05-10T03:02:57;20.63;;;9.07;;
70270;SDS011;57680;54.292;18.598;2023-05-10T03:05:22;16.33;;;8.23;;
70270;SDS011;57680;54.292;18.598;2023-05-10T03:07:48;19.73;;;8.97;;
70270;SDS011;57680;54.292;18.598;2023-05-10T03:10:13;18.10;;;8.45;;
70270;SDS011;57680;54.292;18.598;2023-05-10T03:12:52;21.60;;;8.10;;
70270;SDS011;57680;54.292;18.598;2023-05-10T03:18:22;18.98;;;7.85;;
70270;SDS011;57680;54.292;18.598;2023-05-10T03:20:56;16.23;;;7.80;;
70270;SDS011;57680;54.292;18.598;2023-05-10T03:23:26;16.50;;;6.80;;
70270;SDS011;57680;54.292;18.598;2023-05-10T03:25:54;15.65;;;7.22;;
70270;SDS011;57680;54.292;18.598;2023-05-10T03:28:21;14.85;;;6.80;;
70270;SDS011;57680;54.292;18.598;2023-05-10T03:30:46;11.87;;;6.00;;
70270;SDS011;57680;54.292;18.598;2023-05-10T03:33:12;12.27;;;5.93;;
70270;SDS011;57680;54.292;18.598;2023-05-10T03:35:38;14.88;;;6.22;;
70270;SDS011;57680;54.292;18.598;2023-05-10T03:38:03;15.10;;;6.40;;
70270;SDS011;57680;54.292;18.598;2023-05-10T03:40:29;14.80;;;6.17;;
70270;SDS011;57680;54.292;18.598;2023-05-10T03:42:55;11.60;;;5.90;;
70270;SDS011;57680;54.292;18.598;2023-05-10T03:45:20;14.53;;;5.90;;
70270;SDS011;57680;54.292;18.598;2023-05-10T03:47:46;14.70;;;6.87;;
70270;SDS011;57680;54.292;18.598;2023-05-10T03:50:11;13.80;;;6.55;;
70270;SDS011;57680;54.292;18.598;2023-05-10T03:52:37;14.13;;;6.27;;
70270;SDS011;57680;54.292;18.598;2023-05-10T03:55:02;12.88;;;6.00;;
70270;SDS011;57680;54.292;18.598;2023-05-10T03:57:28;12.57;;;6.03;;
70270;SDS011;57680;54.292;18.598;2023-05-10T03:59:53;12.30;;;6.10;;
70270;SDS011;57680;54.292;18.598;2023-05-10T04:02:19;10.90;;;5.70;;
70270;SDS011;57680;54.292;18.598;2023-05-10T04:04:44;14.52;;;6.20;;
70270;SDS011;57680;54.292;18.598;2023-05-10T04:07:10;13.10;;;6.50;;
70270;SDS011;57680;54.292;18.598;2023-05-10T04:09:35;11.97;;;5.60;;
70270;SDS011;57680;54.292;18.598;2023-05-10T04:12:01;13.00;;;5.45;;
70270;SDS011;57680;54.292;18.598;2023-05-10T04:14:26;11.17;;;5.60;;
70270;SDS011;57680;54.292;18.598;2023-05-10T04:16:52;11.87;;;5.40;;
70270;SDS011;57680;54.292;18.598;2023-05-10T04:19:17;10.40;;;5.65;;
70270;SDS011;57680;54.292;18.598;2023-05-10T04:21:43;11.07;;;5.50;;
70270;SDS011;57680;54.292;18.598;2023-05-10T04:24:08;11.83;;;5.97;;
70270;SDS011;57680;54.292;18.598;2023-05-10T04:26:34;12.20;;;5.40;;
70270;SDS011;57680;54.292;18.598;2023-05-10T04:28:59;14.23;;;5.47;;
70270;SDS011;57680;54.292;18.598;2023-05-10T04:31:25;11.53;;;5.70;;
70270;SDS011;57680;54.292;18.598;2023-05-10T04:33:50;12.73;;;6.07;;
70270;SDS011;57680;54.292;18.598;2023-05-10T04:36:15;12.47;;;5.80;;
70270;SDS011;57680;54.292;18.598;2023-05-10T04:38:41;12.25;;;6.00;;
70270;SDS011;57680;54.292;18.598;2023-05-10T04:41:07;14.47;;;6.47;;
70270;SDS011;57680;54.292;18.598;2023-05-10T04:43:33;11.20;;;5.72;;
70270;SDS011;57680;54.292;18.598;2023-05-10T04:45:59;14.00;;;6.30;;
70270;SDS011;57680;54.292;18.598;2023-05-10T04:48:25;13.43;;;6.00;;
70270;SDS011;57680;54.292;18.598;2023-05-10T04:50:50;14.20;;;6.20;;
70270;SDS011;57680;54.292;18.598;2023-05-10T04:53:16;12.97;;;6.50;;
70270;SDS011;57680;54.292;18.598;2023-05-10T04:55:41;12.35;;;6.20;;
70270;SDS011;57680;54.292;18.598;2023-05-10T04:58:07;10.57;;;5.60;;
70270;SDS011;57680;54.292;18.598;2023-05-10T05:00:32;13.10;;;6.33;;
70270;SDS011;57680;54.292;18.598;2023-05-10T05:02:59;15.05;;;7.63;;
70270;SDS011;57680;54.292;18.598;2023-05-10T05:05:24;14.93;;;7.37;;
70270;SDS011;57680;54.292;18.598;2023-05-10T05:07:50;14.93;;;7.67;;
70270;SDS011;57680;54.292;18.598;2023-05-10T05:10:15;14.47;;;7.20;;
70270;SDS011;57680;54.292;18.598;2023-05-10T05:12:42;16.13;;;7.30;;
70270;SDS011;57680;54.292;18.598;2023-05-10T05:15:07;14.00;;;7.15;;
70270;SDS011;57680;54.292;18.598;2023-05-10T05:17:33;13.07;;;7.03;;
70270;SDS011;57680;54.292;18.598;2023-05-10T05:19:58;11.27;;;6.47;;
70270;SDS011;57680;54.292;18.598;2023-05-10T05:22:24;12.82;;;6.70;;
70270;SDS011;57680;54.292;18.598;2023-05-10T05:24:49;12.90;;;7.07;;
70270;SDS011;57680;54.292;18.598;2023-05-10T05:27:15;12.17;;;6.73;;
70270;SDS011;57680;54.292;18.598;2023-05-10T05:29:41;11.77;;;6.80;;
70270;SDS011;57680;54.292;18.598;2023-05-10T05:32:06;13.63;;;7.17;;
70270;SDS011;57680;54.292;18.598;2023-05-10T05:34:31;14.50;;;6.87;;
70270;SDS011;57680;54.292;18.598;2023-05-10T05:36:57;13.87;;;7.27;;
70270;SDS011;57680;54.292;18.598;2023-05-10T05:39:22;15.38;;;7.22;;
70270;SDS011;57680;54.292;18.598;2023-05-10T05:41:48;13.53;;;6.70;;
70270;SDS011;57680;54.292;18.598;2023-05-10T05:44:13;13.40;;;7.10;;
70270;SDS011;57680;54.292;18.598;2023-05-10T05:46:39;13.75;;;7.22;;
70270;SDS011;57680;54.292;18.598;2023-05-10T05:49:04;13.47;;;7.03;;
70270;SDS011;57680;54.292;18.598;2023-05-10T05:51:30;12.47;;;6.90;;
70270;SDS011;57680;54.292;18.598;2023-05-10T05:53:55;15.30;;;6.43;;
70270;SDS011;57680;54.292;18.598;2023-05-10T05:56:21;13.87;;;6.67;;
70270;SDS011;57680;54.292;18.598;2023-05-10T05:58:46;11.93;;;5.93;;
70270;SDS011;57680;54.292;18.598;2023-05-10T06:01:11;10.97;;;5.80;;
70270;SDS011;57680;54.292;18.598;2023-05-10T06:03:37;13.63;;;6.17;;
70270;SDS011;57680;54.292;18.598;2023-05-10T06:06:02;10.85;;;6.07;;
70270;SDS011;57680;54.292;18.598;2023-05-10T06:08:28;11.70;;;6.10;;
70270;SDS011;57680;54.292;18.598;2023-05-10T06:10:53;13.40;;;6.00;;
70270;SDS011;57680;54.292;18.598;2023-05-10T06:13:19;12.57;;;5.90;;
70270;SDS011;57680;54.292;18.598;2023-05-10T06:15:44;12.47;;;5.87;;
70270;SDS011;57680;54.292;18.598;2023-05-10T06:18:10;9.60;;;5.60;;
70270;SDS011;57680;54.292;18.598;2023-05-10T06:20:36;10.88;;;5.70;;
70270;SDS011;57680;54.292;18.598;2023-05-10T06:23:02;14.00;;;5.87;;
70270;SDS011;57680;54.292;18.598;2023-05-10T06:25:29;11.32;;;5.60;;
70270;SDS011;57680;54.292;18.598;2023-05-10T06:27:55;10.82;;;5.45;;
70270;SDS011;57680;54.292;18.598;2023-05-10T06:30:21;11.20;;;5.30;;
70270;SDS011;57680;54.292;18.598;2023-05-10T06:32:47;11.73;;;5.20;;
70270;SDS011;57680;54.292;18.598;2023-05-10T06:35:13;17.92;;;5.53;;
70270;SDS011;57680;54.292;18.598;2023-05-10T06:37:39;10.83;;;4.90;;
70270;SDS011;57680;54.292;18.598;2023-05-10T06:40:05;9.20;;;4.55;;
70270;SDS011;57680;54.292;18.598;2023-05-10T06:42:31;9.80;;;5.05;;
70270;SDS011;57680;54.292;18.598;2023-05-10T06:44:57;11.67;;;5.00;;
70270;SDS011;57680;54.292;18.598;2023-05-10T06:47:24;9.68;;;4.40;;
70270;SDS011;57680;54.292;18.598;2023-05-10T06:49:49;10.47;;;4.80;;
70270;SDS011;57680;54.292;18.598;2023-05-10T06:52:14;9.15;;;4.53;;
70270;SDS011;57680;54.292;18.598;2023-05-10T06:54:40;9.17;;;4.67;;
70270;SDS011;57680;54.292;18.598;2023-05-10T06:57:05;9.97;;;4.93;;
70270;SDS011;57680;54.292;18.598;2023-05-10T06:59:31;9.33;;;4.10;;
70270;SDS011;57680;54.292;18.598;2023-05-10T07:01:56;10.67;;;4.03;;
70270;SDS011;57680;54.292;18.598;2023-05-10T07:04:22;8.05;;;3.88;;
70270;SDS011;57680;54.292;18.598;2023-05-10T07:06:47;9.63;;;4.10;;
70270;SDS011;57680;54.292;18.598;2023-05-10T07:09:12;11.00;;;4.20;;
70270;SDS011;57680;54.292;18.598;2023-05-10T07:11:38;12.40;;;4.38;;
70270;SDS011;57680;54.292;18.598;2023-05-10T07:14:04;8.73;;;4.23;;
70270;SDS011;57680;54.292;18.598;2023-05-10T07:16:29;7.43;;;3.47;;
70270;SDS011;57680;54.292;18.598;2023-05-10T07:18:55;8.68;;;3.50;;
70270;SDS011;57680;54.292;18.598;2023-05-10T07:21:20;9.20;;;3.50;;
70270;SDS011;57680;54.292;18.598;2023-05-10T07:23:46;9.20;;;3.90;;
70270;SDS011;57680;54.292;18.598;2023-05-10T07:26:11;10.38;;;3.75;;
70270;SDS011;57680;54.292;18.598;2023-05-10T07:28:37;8.17;;;3.80;;
70270;SDS011;57680;54.292;18.598;2023-05-10T07:31:03;9.75;;;3.67;;
70270;SDS011;57680;54.292;18.598;2023-05-10T07:33:28;8.93;;;3.57;;
70270;SDS011;57680;54.292;18.598;2023-05-10T07:35:54;8.50;;;3.60;;
70270;SDS011;57680;54.292;18.598;2023-05-10T07:38:20;10.40;;;3.50;;
70270;SDS011;57680;54.292;18.598;2023-05-10T07:40:45;8.63;;;3.20;;
70270;SDS011;57680;54.292;18.598;2023-05-10T07:43:11;7.47;;;3.23;;
70270;SDS011;57680;54.292;18.598;2023-05-10T07:45:36;7.67;;;3.03;;
70270;SDS011;57680;54.292;18.598;2023-05-10T07:48:02;8.15;;;3.50;;
70270;SDS011;57680;54.292;18.598;2023-05-10T07:50:27;10.90;;;3.40;;
70270;SDS011;57680;54.292;18.598;2023-05-10T07:52:53;7.30;;;3.53;;
70270;SDS011;57680;54.292;18.598;2023-05-10T07:55:19;8.57;;;3.10;;
70270;SDS011;57680;54.292;18.598;2023-05-10T07:57:44;11.70;;;3.40;;
70270;SDS011;57680;54.292;18.598;2023-05-10T08:00:12;8.95;;;3.00;;
70270;SDS011;57680;54.292;18.598;2023-05-10T08:02:38;9.68;;;3.17;;
70270;SDS011;57680;54.292;18.598;2023-05-10T08:05:03;7.60;;;2.93;;
70270;SDS011;57680;54.292;18.598;2023-05-10T08:07:29;9.07;;;2.65;;
70270;SDS011;57680;54.292;18.598;2023-05-10T08:09:55;6.83;;;2.97;;
70270;SDS011;57680;54.292;18.598;2023-05-10T08:12:20;8.03;;;3.20;;
70270;SDS011;57680;54.292;18.598;2023-05-10T08:14:46;9.60;;;2.90;;
70270;SDS011;57680;54.292;18.598;2023-05-10T08:17:12;9.60;;;3.08;;
70270;SDS011;57680;54.292;18.598;2023-05-10T08:19:37;6.57;;;2.80;;
70270;SDS011;57680;54.292;18.598;2023-05-10T08:22:02;9.97;;;2.87;;
70270;SDS011;57680;54.292;18.598;2023-05-10T08:24:28;8.80;;;2.63;;
70270;SDS011;57680;54.292;18.598;2023-05-10T08:26:53;7.87;;;3.13;;
70270;SDS011;57680;54.292;18.598;2023-05-10T08:29:19;12.25;;;3.22;;
70270;SDS011;57680;54.292;18.598;2023-05-10T08:31:44;7.40;;;2.47;;
70270;SDS011;57680;54.292;18.598;2023-05-10T08:34:10;8.93;;;2.50;;
70270;SDS011;57680;54.292;18.598;2023-05-10T08:36:35;8.65;;;2.80;;
70270;SDS011;57680;54.292;18.598;2023-05-10T08:39:01;15.30;;;2.83;;
70270;SDS011;57680;54.292;18.598;2023-05-10T08:41:27;10.02;;;2.90;;
70270;SDS011;57680;54.292;18.598;2023-05-10T08:43:54;66.53;;;6.07;;
70270;SDS011;57680;54.292;18.598;2023-05-10T08:46:20;12.15;;;2.97;;
70270;SDS011;57680;54.292;18.598;2023-05-10T08:48:47;6.20;;;2.50;;
70270;SDS011;57680;54.292;18.598;2023-05-10T08:51:14;9.27;;;2.90;;
70270;SDS011;57680;54.292;18.598;2023-05-10T08:53:44;15.93;;;3.00;;
70270;SDS011;57680;54.292;18.598;2023-05-10T08:56:10;14.93;;;3.15;;
70270;SDS011;57680;54.292;18.598;2023-05-10T08:58:36;7.90;;;2.80;;
70270;SDS011;57680;54.292;18.598;2023-05-10T09:01:03;8.60;;;2.75;;
70270;SDS011;57680;54.292;18.598;2023-05-10T09:03:29;15.02;;;2.95;;
70270;SDS011;57680;54.292;18.598;2023-05-10T09:05:55;10.65;;;2.50;;
70270;SDS011;57680;54.292;18.598;2023-05-10T09:08:22;36.80;;;3.77;;
70270;SDS011;57680;54.292;18.598;2023-05-10T09:10:48;14.68;;;3.25;;
70270;SDS011;57680;54.292;18.598;2023-05-10T09:13:15;8.83;;;2.67;;
70270;SDS011;57680;54.292;18.598;2023-05-10T09:15:43;8.68;;;2.38;;
70270;SDS011;57680;54.292;18.598;2023-05-10T09:18:08;10.50;;;2.83;;
70270;SDS011;57680;54.292;18.598;2023-05-10T09:20:34;12.32;;;2.45;;
70270;SDS011;57680;54.292;18.598;2023-05-10T09:22:59;9.03;;;2.80;;
70270;SDS011;57680;54.292;18.598;2023-05-10T09:25:25;9.80;;;2.67;;
70270;SDS011;57680;54.292;18.598;2023-05-10T09:27:51;13.47;;;3.20;;
70270;SDS011;57680;54.292;18.598;2023-05-10T09:30:22;10.30;;;2.50;;
70270;SDS011;57680;54.292;18.598;2023-05-10T09:32:53;15.98;;;3.90;;
70270;SDS011;57680;54.292;18.598;2023-05-10T09:35:20;12.63;;;3.50;;
70270;SDS011;57680;54.292;18.598;2023-05-10T09:37:49;10.18;;;3.17;;
70270;SDS011;57680;54.292;18.598;2023-05-10T09:40:17;7.43;;;2.27;;
70270;SDS011;57680;54.292;18.598;2023-05-10T09:45:30;8.45;;;2.92;;
70270;SDS011;57680;54.292;18.598;2023-05-10T09:47:57;8.50;;;2.80;;
70270;SDS011;57680;54.292;18.598;2023-05-10T09:50:23;8.30;;;2.70;;
70270;SDS011;57680;54.292;18.598;2023-05-10T09:52:52;11.53;;;2.83;;
70270;SDS011;57680;54.292;18.598;2023-05-10T09:55:20;9.70;;;2.50;;
70270;SDS011;57680;54.292;18.598;2023-05-10T09:57:47;7.82;;;2.38;;
70270;SDS011;57680;54.292;18.598;2023-05-10T10:00:16;6.70;;;2.27;;
70270;SDS011;57680;54.292;18.598;2023-05-10T10:02:45;10.25;;;2.78;;
70270;SDS011;57680;54.292;18.598;2023-05-10T10:05:12;8.80;;;2.78;;
70270;SDS011;57680;54.292;18.598;2023-05-10T10:07:38;8.30;;;3.10;;
70270;SDS011;57680;54.292;18.598;2023-05-10T10:10:05;6.33;;;2.70;;
70270;SDS011;57680;54.292;18.598;2023-05-10T10:12:31;6.20;;;2.47;;
70270;SDS011;57680;54.292;18.598;2023-05-10T10:14:56;9.03;;;2.40;;
70270;SDS011;57680;54.292;18.598;2023-05-10T10:17:24;10.38;;;2.40;;
70270;SDS011;57680;54.292;18.598;2023-05-10T10:19:52;8.93;;;2.65;;
70270;SDS011;57680;54.292;18.598;2023-05-10T10:22:17;11.18;;;3.10;;
70270;SDS011;57680;54.292;18.598;2023-05-10T10:24:43;7.80;;;2.70;;
70270;SDS011;57680;54.292;18.598;2023-05-10T10:27:13;6.05;;;2.20;;
70270;SDS011;57680;54.292;18.598;2023-05-10T10:33:24;6.20;;;2.47;;
70270;SDS011;57680;54.292;18.598;2023-05-10T10:35:43;7.30;;;2.30;;
70270;SDS011;57680;54.292;18.598;2023-05-10T10:38:11;9.35;;;2.13;;
70270;SDS011;57680;54.292;18.598;2023-05-10T10:40:37;7.57;;;2.70;;
70270;SDS011;57680;54.292;18.598;2023-05-10T10:48:36;11.07;;;2.70;;
70270;SDS011;57680;54.292;18.598;2023-05-10T10:51:01;6.20;;;2.33;;
70270;SDS011;57680;54.292;18.598;2023-05-10T10:53:27;6.07;;;2.35;;
70270;SDS011;57680;54.292;18.598;2023-05-10T10:56:02;15.57;;;2.77;;
70270;SDS011;57680;54.292;18.598;2023-05-10T10:58:32;9.50;;;2.58;;
70270;SDS011;57680;54.292;18.598;2023-05-10T11:01:19;8.00;;;2.70;;
70270;SDS011;57680;54.292;18.598;2023-05-10T11:06:31;9.27;;;2.80;;
70270;SDS011;57680;54.292;18.598;2023-05-10T11:08:58;7.68;;;2.60;;
70270;SDS011;57680;54.292;18.598;2023-05-10T11:11:24;8.68;;;2.60;;
70270;SDS011;57680;54.292;18.598;2023-05-10T11:13:50;7.47;;;2.73;;
70270;SDS011;57680;54.292;18.598;2023-05-10T11:16:22;6.70;;;2.50;;
70270;SDS011;57680;54.292;18.598;2023-05-10T11:21:18;7.50;;;2.30;;
70270;SDS011;57680;54.292;18.598;2023-05-10T11:26:14;8.20;;;2.50;;
70270;SDS011;57680;54.292;18.598;2023-05-10T11:28:43;12.02;;;2.70;;
70270;SDS011;57680;54.292;18.598;2023-05-10T11:31:16;9.98;;;2.72;;
70270;SDS011;57680;54.292;18.598;2023-05-10T11:33:46;7.67;;;2.17;;
70270;SDS011;57680;54.292;18.598;2023-05-10T11:38:45;6.32;;;2.47;;
70270;SDS011;57680;54.292;18.598;2023-05-10T11:41:11;6.80;;;2.60;;
70270;SDS011;57680;54.292;18.598;2023-05-10T11:43:40;9.10;;;2.43;;
70270;SDS011;57680;54.292;18.598;2023-05-10T11:46:10;10.32;;;2.50;;
70270;SDS011;57680;54.292;18.598;2023-05-10T11:48:38;7.07;;;2.78;;
70270;SDS011;57680;54.292;18.598;2023-05-10T11:51:04;9.57;;;2.70;;
70270;SDS011;57680;54.292;18.598;2023-05-10T11:53:30;6.93;;;2.50;;
70270;SDS011;57680;54.292;18.598;2023-05-10T11:56:06;11.15;;;3.00;;
70270;SDS011;57680;54.292;18.598;2023-05-10T11:58:33;8.60;;;2.70;;
70270;SDS011;57680;54.292;18.598;2023-05-10T12:00:59;9.40;;;3.03;;
70270;SDS011;57680;54.292;18.598;2023-05-10T12:03:25;9.00;;;2.63;;
70270;SDS011;57680;54.292;18.598;2023-05-10T12:05:51;7.63;;;2.60;;
70270;SDS011;57680;54.292;18.598;2023-05-10T12:08:20;5.40;;;2.07;;
70270;SDS011;57680;54.292;18.598;2023-05-10T12:10:47;8.85;;;2.75;;
70270;SDS011;57680;54.292;18.598;2023-05-10T12:13:13;7.97;;;2.33;;
70270;SDS011;57680;54.292;18.598;2023-05-10T12:15:39;9.57;;;2.95;;
70270;SDS011;57680;54.292;18.598;2023-05-10T12:18:05;6.32;;;2.28;;
70270;SDS011;57680;54.292;18.598;2023-05-10T12:20:33;6.67;;;2.50;;
70270;SDS011;57680;54.292;18.598;2023-05-10T12:22:58;10.23;;;2.70;;
70270;SDS011;57680;54.292;18.598;2023-05-10T12:25:24;9.25;;;2.60;;
70270;SDS011;57680;54.292;18.598;2023-05-10T12:27:55;9.30;;;2.50;;
70270;SDS011;57680;54.292;18.598;2023-05-10T12:30:25;8.82;;;2.70;;
70270;SDS011;57680;54.292;18.598;2023-05-10T12:32:52;7.35;;;2.30;;
70270;SDS011;57680;54.292;18.598;2023-05-10T12:35:18;5.72;;;2.30;;
70270;SDS011;57680;54.292;18.598;2023-05-10T12:37:44;8.38;;;2.70;;
70270;SDS011;57680;54.292;18.598;2023-05-10T12:40:10;7.33;;;2.40;;
70270;SDS011;57680;54.292;18.598;2023-05-10T12:42:36;9.07;;;2.50;;
70270;SDS011;57680;54.292;18.598;2023-05-10T12:45:04;6.13;;;2.30;;
70270;SDS011;57680;54.292;18.598;2023-05-10T12:47:30;12.98;;;2.83;;
70270;SDS011;57680;54.292;18.598;2023-05-10T12:49:55;9.50;;;2.50;;
70270;SDS011;57680;54.292;18.598;2023-05-10T12:52:21;7.78;;;3.10;;
70270;SDS011;57680;54.292;18.598;2023-05-10T12:54:46;7.80;;;2.60;;
70270;SDS011;57680;54.292;18.598;2023-05-10T12:57:12;9.83;;;2.70;;
70270;SDS011;57680;54.292;18.598;2023-05-10T12:59:38;10.15;;;2.83;;
70270;SDS011;57680;54.292;18.598;2023-05-10T13:02:03;6.77;;;2.67;;
70270;SDS011;57680;54.292;18.598;2023-05-10T13:04:29;7.55;;;2.70;;
70270;SDS011;57680;54.292;18.598;2023-05-10T13:06:55;8.30;;;2.70;;
70270;SDS011;57680;54.292;18.598;2023-05-10T13:09:20;9.32;;;2.58;;
70270;SDS011;57680;54.292;18.598;2023-05-10T13:11:46;11.57;;;2.60;;
70270;SDS011;57680;54.292;18.598;2023-05-10T13:14:11;8.47;;;3.00;;
70270;SDS011;57680;54.292;18.598;2023-05-10T13:16:36;8.07;;;2.30;;
70270;SDS011;57680;54.292;18.598;2023-05-10T13:19:02;12.20;;;2.80;;
70270;SDS011;57680;54.292;18.598;2023-05-10T13:21:27;11.60;;;3.03;;
70270;SDS011;57680;54.292;18.598;2023-05-10T13:23:53;7.87;;;2.50;;
70270;SDS011;57680;54.292;18.598;2023-05-10T13:26:18;7.87;;;2.80;;
70270;SDS011;57680;54.292;18.598;2023-05-10T13:28:44;7.03;;;2.90;;
70270;SDS011;57680;54.292;18.598;2023-05-10T13:31:09;6.63;;;2.87;;
70270;SDS011;57680;54.292;18.598;2023-05-10T13:33:35;6.80;;;2.93;;
70270;SDS011;57680;54.292;18.598;2023-05-10T13:36:00;7.87;;;2.70;;
70270;SDS011;57680;54.292;18.598;2023-05-10T13:38:25;9.35;;;2.97;;
70270;SDS011;57680;54.292;18.598;2023-05-10T13:40:51;11.93;;;2.37;;
70270;SDS011;57680;54.292;18.598;2023-05-10T13:43:16;7.13;;;2.40;;
70270;SDS011;57680;54.292;18.598;2023-05-10T13:45:43;9.57;;;3.20;;
70270;SDS011;57680;54.292;18.598;2023-05-10T13:48:09;7.90;;;2.70;;
70270;SDS011;57680;54.292;18.598;2023-05-10T13:50:35;8.75;;;2.75;;
70270;SDS011;57680;54.292;18.598;2023-05-10T13:53:00;7.30;;;3.07;;
70270;SDS011;57680;54.292;18.598;2023-05-10T13:55:26;6.97;;;3.20;;
70270;SDS011;57680;54.292;18.598;2023-05-10T13:57:51;7.95;;;2.63;;
70270;SDS011;57680;54.292;18.598;2023-05-10T14:00:17;8.20;;;2.70;;
70270;SDS011;57680;54.292;18.598;2023-05-10T14:02:43;9.10;;;2.70;;
70270;SDS011;57680;54.292;18.598;2023-05-10T14:05:09;9.90;;;2.70;;
70270;SDS011;57680;54.292;18.598;2023-05-10T14:07:34;7.43;;;2.83;;
70270;SDS011;57680;54.292;18.598;2023-05-10T14:10:00;8.63;;;3.37;;
70270;SDS011;57680;54.292;18.598;2023-05-10T14:12:27;9.13;;;2.53;;
70270;SDS011;57680;54.292;18.598;2023-05-10T14:14:52;9.20;;;2.90;;
70270;SDS011;57680;54.292;18.598;2023-05-10T14:17:18;6.53;;;2.40;;
70270;SDS011;57680;54.292;18.598;2023-05-10T14:19:43;7.18;;;2.30;;
70270;SDS011;57680;54.292;18.598;2023-05-10T14:22:08;6.83;;;2.70;;
70270;SDS011;57680;54.292;18.598;2023-05-10T14:24:34;7.57;;;2.60;;
70270;SDS011;57680;54.292;18.598;2023-05-10T14:27:00;10.20;;;2.80;;
70270;SDS011;57680;54.292;18.598;2023-05-10T14:29:25;5.80;;;2.55;;
70270;SDS011;57680;54.292;18.598;2023-05-10T14:31:51;7.27;;;2.40;;
70270;SDS011;57680;54.292;18.598;2023-05-10T14:34:16;6.65;;;2.20;;
70270;SDS011;57680;54.292;18.598;2023-05-10T14:36:42;5.97;;;2.40;;
70270;SDS011;57680;54.292;18.598;2023-05-10T14:39:07;7.18;;;2.33;;
70270;SDS011;57680;54.292;18.598;2023-05-10T14:41:33;7.43;;;2.47;;
70270;SDS011;57680;54.292;18.598;2023-05-10T14:43:58;6.38;;;2.47;;
70270;SDS011;57680;54.292;18.598;2023-05-10T14:46:24;6.33;;;2.10;;
70270;SDS011;57680;54.292;18.598;2023-05-10T14:48:50;6.70;;;2.40;;
70270;SDS011;57680;54.292;18.598;2023-05-10T14:51:15;7.50;;;2.30;;
70270;SDS011;57680;54.292;18.598;2023-05-10T14:53:41;8.35;;;2.20;;
70270;SDS011;57680;54.292;18.598;2023-05-10T14:56:07;8.52;;;2.65;;
70270;SDS011;57680;54.292;18.598;2023-05-10T14:58:32;8.33;;;2.20;;
70270;SDS011;57680;54.292;18.598;2023-05-10T15:00:58;9.13;;;2.47;;
70270;SDS011;57680;54.292;18.598;2023-05-10T15:03:23;9.50;;;2.40;;